Página principal
METAR-TAF:

METAR-TAF

Aeroportos :

Aeroporto de Cairns

Cairns, Austrália

latitude: 16-53S, longitude: 145-45E, altura: 3 m

Observação actual do tempo

O boletim foi feito há 48 minutos, às 00:30 UTC
Vento 19 kt de es-sudeste
Temperatura 31°C
Humidade 43%
Pressão 1013 hPa
Visibilidade 10 km ou mais
Poucas nuvensa uma altura de 3000 ft

METAR: YBCS 130030Z 12019KT 9999 FEW030 31/17 Q1013 NOSIG

Hora: 11:18 (01:18 UTC)

Previsão

O boletim foi feito há 2 horas e 19 minutos, às 22:59 UTC
Previsão válida de 13 às 00 UTC a 13 às 24 UTC
Vento 14 kt de es-sudeste
Visibilidade 10 km ou mais
Nuvens dispersasa uma altura de 3000 ft

TAF: YBCS 122259Z 1300/1324 12014KT 9999 SCT030

Observações e previsões do tempo de mais de 4000 aeroportos (mensagens METAR e TAF).

As estações disponíveis são os pontos amarelos e vermelhos sobre o mapa.

Mova o rato sobre o mapa para ver o nome da estação.

Depois clique no ponto para visualizar as observações e previsões meteorológicas.

Para alterar o mapa : clique nos botões verdes com uma cruz preta para aumentar o zoom; no botão verde com uma pitada de zoom; ou nas setas verdes para mapas adjacentes.


METAR-TAF: